KDCA/DCA METAR and TAF weather

Enter ICAO airport designator
Station Type Date Time Source
KDCA METAR 2018/12/12 15:52 UTC NOAA

KDCA 121552Z VRB03KT 10SM BKN250 07/M04 A3023 RMK AO2 SLP237 T00721044


Station Type Date Time Source
KDCA Decoded METAR 2018/12/12 15:52 UTC NOAA

WASHINGTON NATIONAL AIRPORT , VA, United States (KDCA) 38-51N 077-02W 18M
Dec 12, 2018 - 10:52 AM EST / 2018.12.12 1552 UTC
Wind: Variable at 3 MPH (3 KT):0
Visibility: 10 mile(s):0
Sky conditions: mostly cloudy
Temperature: 45.0 F (7.2 C)
Dew Point: 24.1 F (-4.4 C)
Relative Humidity: 43%
Pressure (altimeter): 30.23 in. Hg (1023 hPa)
ob: KDCA 121552Z VRB03KT 10SM BKN250 07/M04 A3023 RMK AO2 SLP237 T00721044
cycle: 16

Station Type Date Time Source
KDCA TAF 2018/12/12 15:24 UTC NOAA

TAF
AMD KDCA 121522Z 1215/1318 17004KT P6SM SCT250
FM121900 VRB04KT P6SM BKN150
FM130500 VRB03KT P6SM BKN070


Example: see airport list